Terminal Aerodrome Forecast
Issued by NWS

Home | Current Version | Previous Version | Text Only | Print | Product List | Glossary On
Versions: 1 2 3 4 5 6 7 8 9 10 11 12 13 14 15 16 17 18 19 20 21
604
FTUS43 KLSX 100526
TAFSUS
TAF
KSUS 100526Z 1006/1106 30012KT P6SM SCT040
     FM101900 29007KT P6SM VCSH BKN050
     FM102100 28005KT 3SM -SN BKN040
     FM110200 05004KT 2SM -SN OVC025=

USA.gov is the U.S. government's official web portal to all federal, state and local government web resources and services.